createdAt,value
2018-11-22T00:00:59.843Z,0.00
2018-11-22T00:01:49.214Z,0.00
2018-11-22T00:03:42.136Z,0.00
2018-11-22T00:04:42.143Z,0.00
2018-11-22T00:06:48.601Z,0.00
2018-11-22T00:30:45.841Z,5.63
2018-11-22T00:31:10.517Z,5.63
2018-11-22T00:33:03.423Z,5.63
2018-11-22T00:34:03.430Z,5.63
2018-11-22T00:35:56.411Z,5.63
2018-11-22T00:36:56.342Z,5.63
2018-11-22T00:38:49.268Z,5.63
2018-11-22T00:39:49.256Z,5.63
2018-11-22T00:41:42.236Z,5.63
2018-11-22T00:42:42.169Z,5.63
2018-11-22T00:44:35.074Z,5.63
2018-11-22T00:45:35.159Z,5.63
2018-11-22T00:47:28.147Z,5.63
2018-11-22T00:48:27.998Z,5.63
2018-11-22T00:50:21.457Z,5.63
2018-11-22T00:51:20.914Z,5.63
2018-11-22T00:53:14.872Z,5.63
2018-11-22T00:54:13.826Z,5.63
2018-11-22T00:56:06.732Z,5.63
2018-11-22T00:57:06.740Z,5.63
2018-11-22T00:58:59.914Z,11.25
2018-11-22T00:59:59.658Z,11.25
2018-11-22T01:01:52.567Z,11.25
2018-11-22T01:02:52.573Z,11.25
2018-11-22T01:04:45.743Z,11.25
2018-11-22T01:05:45.538Z,11.25
2018-11-22T01:07:38.396Z,11.25
2018-11-22T01:08:38.401Z,11.25
2018-11-22T01:10:31.564Z,11.25
2018-11-22T01:11:31.315Z,11.25
2018-11-22T01:13:24.223Z,11.25
2018-11-22T01:14:24.227Z,11.25
2018-11-22T01:16:17.408Z,16.88
2018-11-22T01:17:17.160Z,16.88
2018-11-22T01:19:10.070Z,16.88
2018-11-22T01:20:10.076Z,16.88
2018-11-22T01:22:10.707Z,16.88
2018-11-22T01:23:02.992Z,16.88
2018-11-22T01:24:55.895Z,16.88
2018-11-22T01:25:55.903Z,16.88
2018-11-22T01:27:49.062Z,16.88
2018-11-22T01:28:48.816Z,16.88
2018-11-22T01:30:41.720Z,16.88
2018-11-22T01:31:41.730Z,16.88
2018-11-22T01:33:37.869Z,16.88
2018-11-22T01:34:34.646Z,16.88
2018-11-22T01:36:27.557Z,16.88
2018-11-22T01:37:27.560Z,16.88
2018-11-22T01:39:20.568Z,16.88
2018-11-22T01:40:20.475Z,16.88
2018-11-22T01:42:13.380Z,16.88
2018-11-22T01:43:13.389Z,16.88
2018-11-22T01:45:06.457Z,16.88
2018-11-22T01:46:06.302Z,11.25
2018-11-22T01:47:59.779Z,11.25
2018-11-22T01:48:59.214Z,11.25
2018-11-22T01:50:52.197Z,11.25
2018-11-22T01:51:52.129Z,11.25
2018-11-22T01:53:45.037Z,11.25
2018-11-22T01:54:45.049Z,11.25
2018-11-22T01:56:38.218Z,11.25
2018-11-22T01:57:37.965Z,11.25
2018-11-22T01:59:30.882Z,11.25
2018-11-22T02:00:30.879Z,11.25
2018-11-22T02:02:24.053Z,11.25
2018-11-22T02:03:23.806Z,11.25
2018-11-22T02:05:16.709Z,11.25
2018-11-22T02:06:16.717Z,11.25
2018-11-22T02:08:11.063Z,11.25
2018-11-22T02:09:10.814Z,11.25
2018-11-22T02:11:03.729Z,11.25
2018-11-22T02:12:03.730Z,11.25
2018-11-22T02:13:56.807Z,11.25
2018-11-22T02:14:56.653Z,11.25
2018-11-22T02:16:49.549Z,11.25
2018-11-22T02:17:49.558Z,11.25
2018-11-22T02:19:42.644Z,11.25
2018-11-22T02:20:42.475Z,11.25
2018-11-22T02:22:35.383Z,11.25
2018-11-22T02:23:35.389Z,11.25
2018-11-22T02:25:28.438Z,11.25
2018-11-22T02:26:28.304Z,11.25
2018-11-22T02:28:21.218Z,11.25
2018-11-22T02:29:21.225Z,11.25
2018-11-22T02:31:14.434Z,11.25
2018-11-22T02:32:14.188Z,11.25
2018-11-22T02:34:07.091Z,11.25
2018-11-22T02:35:07.108Z,11.25
2018-11-22T02:37:00.263Z,16.88
2018-11-22T02:38:00.019Z,16.88
2018-11-22T02:39:53.475Z,16.88
2018-11-22T02:40:52.973Z,16.88
2018-11-22T02:42:45.916Z,16.88
2018-11-22T02:43:45.849Z,16.88
2018-11-22T02:45:38.753Z,16.88
2018-11-22T02:46:38.762Z,16.88
2018-11-22T02:48:37.497Z,16.88
2018-11-22T02:49:31.880Z,16.88
2018-11-22T02:51:24.829Z,22.50
2018-11-22T02:52:24.793Z,22.50
2018-11-22T02:54:17.951Z,22.50
2018-11-22T02:55:17.706Z,22.50
2018-11-22T02:57:10.623Z,22.50
2018-11-22T02:58:10.623Z,22.50
2018-11-22T03:00:03.805Z,22.50
2018-11-22T03:01:03.540Z,22.50
2018-11-22T03:02:56.447Z,22.50
2018-11-22T03:03:56.457Z,22.50
2018-11-22T03:05:49.617Z,22.50
2018-11-22T03:06:49.373Z,22.50
2018-11-22T03:08:42.850Z,22.50
2018-11-22T03:09:42.322Z,22.50
2018-11-22T03:11:35.449Z,22.50
2018-11-22T03:12:35.203Z,22.50
2018-11-22T03:14:28.679Z,22.50
2018-11-22T03:15:28.126Z,16.88
2018-11-22T03:17:21.284Z,16.88
2018-11-22T03:18:21.040Z,16.88
2018-11-22T03:20:13.948Z,16.88
2018-11-22T03:21:13.955Z,16.88
2018-11-22T03:23:06.934Z,22.50
2018-11-22T03:24:06.869Z,22.50
2018-11-22T03:25:59.778Z,22.50
2018-11-22T03:26:59.787Z,22.50
2018-11-22T03:28:52.955Z,28.13
2018-11-22T03:29:52.702Z,28.13
2018-11-22T03:31:45.611Z,28.13
2018-11-22T03:32:45.620Z,33.75
2018-11-22T03:34:38.804Z,28.13
2018-11-22T03:35:38.536Z,33.75
2018-11-22T03:37:31.442Z,28.13
2018-11-22T03:38:31.453Z,28.13
2018-11-22T03:40:24.637Z,28.13
2018-11-22T03:41:24.373Z,28.13
2018-11-22T03:43:17.284Z,33.75
2018-11-22T03:44:17.292Z,33.75
2018-11-22T03:46:10.452Z,33.75
2018-11-22T03:47:10.208Z,33.75
2018-11-22T03:49:03.115Z,33.75
2018-11-22T03:50:03.126Z,28.13
2018-11-22T03:51:56.289Z,28.13
2018-11-22T03:52:56.043Z,28.13
2018-11-22T03:54:48.953Z,28.13
2018-11-22T03:55:48.960Z,28.13
2018-11-22T03:57:42.121Z,28.13
2018-11-22T03:58:41.876Z,28.13
2018-11-22T04:00:34.782Z,28.13
2018-11-22T04:01:34.792Z,28.13
2018-11-22T04:03:27.955Z,28.13
2018-11-22T04:04:27.709Z,28.13
2018-11-22T04:06:20.620Z,28.13
2018-11-22T04:07:20.640Z,28.13
2018-11-22T04:09:27.762Z,28.13
2018-11-22T04:10:13.547Z,28.13
2018-11-22T04:12:06.454Z,28.13
2018-11-22T04:13:06.461Z,28.13
2018-11-22T04:14:59.651Z,28.13
2018-11-22T04:15:59.380Z,28.13
2018-11-22T04:17:52.309Z,28.13
2018-11-22T04:18:52.320Z,28.13
2018-11-22T04:20:45.481Z,28.13
2018-11-22T04:21:45.232Z,28.13
2018-11-22T04:23:38.143Z,28.13
2018-11-22T04:24:38.153Z,28.13
2018-11-22T04:26:31.313Z,22.50
2018-11-22T04:27:31.067Z,22.50
2018-11-22T04:29:23.977Z,22.50
2018-11-22T04:30:23.988Z,28.13
2018-11-22T04:32:17.150Z,28.13
2018-11-22T04:33:16.904Z,28.13
2018-11-22T04:35:09.818Z,28.13
2018-11-22T04:36:09.827Z,28.13
2018-11-22T04:38:02.812Z,28.13
2018-11-22T04:39:02.742Z,28.13
2018-11-22T04:40:55.656Z,28.13
2018-11-22T04:41:55.668Z,28.13
2018-11-22T04:43:48.838Z,28.13
2018-11-22T04:44:48.588Z,28.13
2018-11-22T04:46:41.491Z,28.13
2018-11-22T04:47:41.499Z,28.13
2018-11-22T04:49:34.682Z,28.13
2018-11-22T04:50:34.420Z,28.13
2018-11-22T04:52:27.330Z,28.13
2018-11-22T04:53:27.338Z,28.13
2018-11-22T04:55:20.472Z,28.13
2018-11-22T04:56:20.257Z,28.13
2018-11-22T04:58:13.168Z,28.13
2018-11-22T04:59:13.174Z,28.13
2018-11-22T05:01:06.340Z,28.13
2018-11-22T05:02:06.093Z,28.13
2018-11-22T05:03:58.996Z,28.13
2018-11-22T05:04:59.005Z,28.13
2018-11-22T05:06:52.170Z,28.13
2018-11-22T05:07:51.923Z,28.13
2018-11-22T05:09:44.835Z,28.13
2018-11-22T05:10:44.877Z,28.13
2018-11-22T05:12:38.022Z,28.13
2018-11-22T05:13:37.757Z,28.13
2018-11-22T05:15:30.667Z,28.13
2018-11-22T05:16:30.675Z,28.13
2018-11-22T05:18:24.419Z,28.13
2018-11-22T05:19:23.618Z,28.13
2018-11-22T05:21:16.506Z,28.13
2018-11-22T05:22:16.533Z,28.13
2018-11-22T05:24:09.494Z,33.75
2018-11-22T05:25:09.432Z,33.75
2018-11-22T05:27:02.338Z,33.75
2018-11-22T05:28:02.348Z,33.75
2018-11-22T05:29:56.502Z,33.75
2018-11-22T05:30:56.259Z,33.75
2018-11-22T05:32:49.166Z,33.75
2018-11-22T05:33:49.176Z,33.75
2018-11-22T05:35:42.345Z,33.75
2018-11-22T05:36:42.093Z,33.75
2018-11-22T05:38:34.998Z,33.75
2018-11-22T05:39:35.010Z,33.75
2018-11-22T05:41:28.181Z,33.75
2018-11-22T05:42:27.932Z,33.75
2018-11-22T05:44:20.843Z,39.38
2018-11-22T05:45:20.854Z,39.38
2018-11-22T05:47:17.588Z,39.38
2018-11-22T05:48:13.773Z,45.00
2018-11-22T05:50:06.707Z,45.00
2018-11-22T05:51:06.692Z,45.00
2018-11-22T05:52:59.861Z,45.00
2018-11-22T05:53:59.612Z,45.00
2018-11-22T05:55:53.075Z,45.00
2018-11-22T05:56:52.529Z,45.00
2018-11-22T05:58:45.705Z,45.00
2018-11-22T05:59:45.460Z,45.00
2018-11-22T06:01:38.364Z,45.00
2018-11-22T06:02:38.393Z,45.00
2018-11-22T06:04:31.425Z,45.00
2018-11-22T06:05:31.292Z,45.00
2018-11-22T06:07:24.202Z,45.00
2018-11-22T06:08:24.211Z,45.00
2018-11-22T06:10:17.195Z,45.00
2018-11-22T06:11:17.129Z,45.00
2018-11-22T06:13:10.040Z,45.00
2018-11-22T06:14:10.049Z,45.00
2018-11-22T06:16:03.043Z,45.00
2018-11-22T06:17:02.971Z,45.00
2018-11-22T06:18:55.877Z,45.00
2018-11-22T06:19:55.891Z,45.00
2018-11-22T06:21:49.055Z,45.00
2018-11-22T06:22:48.807Z,45.00
2018-11-22T06:24:41.726Z,39.38
2018-11-22T06:25:41.725Z,39.38
2018-11-22T06:27:34.900Z,39.38
2018-11-22T06:28:34.649Z,39.38
2018-11-22T06:30:27.558Z,39.38
2018-11-22T06:31:27.570Z,39.38
2018-11-22T06:33:20.627Z,39.38
2018-11-22T06:34:20.489Z,39.38
2018-11-22T06:36:13.403Z,39.38
2018-11-22T06:37:13.417Z,39.38
2018-11-22T06:39:19.965Z,33.75
2018-11-22T06:40:06.357Z,33.75
2018-11-22T06:41:59.274Z,33.75
2018-11-22T06:42:59.279Z,33.75
2018-11-22T06:44:52.352Z,33.75
2018-11-22T06:45:52.199Z,28.13
2018-11-22T06:47:45.112Z,28.13
2018-11-22T06:48:45.121Z,28.13
2018-11-22T06:50:38.290Z,28.13
2018-11-22T06:51:38.038Z,28.13
2018-11-22T06:53:30.948Z,28.13
2018-11-22T06:54:30.956Z,28.13
2018-11-22T06:56:23.938Z,28.13
2018-11-22T06:57:23.872Z,28.13
2018-11-22T06:59:16.786Z,28.13
2018-11-22T07:00:16.797Z,28.13
2018-11-22T07:02:13.424Z,28.13
2018-11-22T07:03:09.714Z,22.50
2018-11-22T07:05:03.191Z,22.50
2018-11-22T07:06:02.632Z,22.50
2018-11-22T07:07:55.805Z,22.50
2018-11-22T07:08:55.552Z,28.13
2018-11-22T07:10:48.460Z,28.13
2018-11-22T07:11:48.471Z,28.13
2018-11-22T07:13:41.547Z,28.13
2018-11-22T07:14:41.390Z,28.13
2018-11-22T07:16:34.298Z,28.13
2018-11-22T07:17:34.308Z,28.13
2018-11-22T07:19:27.476Z,33.75
2018-11-22T07:20:27.234Z,33.75
2018-11-22T07:22:20.141Z,33.75
2018-11-22T07:23:20.153Z,33.75
2018-11-22T07:25:14.114Z,39.38
2018-11-22T07:26:13.080Z,39.38
2018-11-22T07:28:05.985Z,39.38
2018-11-22T07:29:05.998Z,39.38
2018-11-22T07:31:04.232Z,39.38
2018-11-22T07:31:58.917Z,39.38
2018-11-22T07:33:51.868Z,39.38
2018-11-22T07:34:51.835Z,39.38
2018-11-22T07:36:45.010Z,39.38
2018-11-22T07:37:44.762Z,39.38
2018-11-22T07:39:37.668Z,33.75
2018-11-22T07:40:37.674Z,33.75
2018-11-22T07:42:30.838Z,28.13
2018-11-22T07:43:30.593Z,28.13
2018-11-22T07:45:23.505Z,28.13
2018-11-22T07:46:23.512Z,28.13
2018-11-22T07:48:16.686Z,28.13
2018-11-22T07:49:16.435Z,28.13
2018-11-22T07:51:09.346Z,28.13
2018-11-22T07:52:09.358Z,22.50
2018-11-22T07:54:02.533Z,28.13
2018-11-22T07:55:02.289Z,22.50
2018-11-22T07:56:55.196Z,22.50
2018-11-22T07:57:55.205Z,22.50
2018-11-22T07:59:48.274Z,22.50
2018-11-22T08:00:48.123Z,22.50
2018-11-22T08:02:41.034Z,22.50
2018-11-22T08:03:41.044Z,22.50
2018-11-22T08:05:34.035Z,22.50
2018-11-22T08:06:33.968Z,22.50
2018-11-22T08:08:27.467Z,22.50
2018-11-22T08:09:26.882Z,22.50
2018-11-22T08:11:20.110Z,22.50
2018-11-22T08:12:25.878Z,22.50
2018-11-22T08:14:12.720Z,28.13
2018-11-22T08:15:12.743Z,28.13
2018-11-22T08:17:05.903Z,33.75
2018-11-22T08:18:05.644Z,33.75
2018-11-22T08:19:58.561Z,39.38
2018-11-22T08:21:04.610Z,39.38
2018-11-22T08:22:51.744Z,33.75
2018-11-22T08:23:51.492Z,33.75
2018-11-22T08:25:44.397Z,39.38
2018-11-22T08:26:44.407Z,33.75
2018-11-22T08:28:37.580Z,33.75
2018-11-22T08:29:37.333Z,28.13
2018-11-22T08:31:31.801Z,28.13
2018-11-22T08:32:30.263Z,28.13
2018-11-22T08:34:24.222Z,22.50
2018-11-22T08:35:23.309Z,22.50
2018-11-22T08:37:16.186Z,22.50
2018-11-22T08:38:16.192Z,22.50
2018-11-22T08:40:09.358Z,22.50
2018-11-22T08:41:09.110Z,22.50
2018-11-22T08:43:02.023Z,22.50
2018-11-22T08:44:02.032Z,22.50
2018-11-22T08:45:55.049Z,22.50
2018-11-22T08:46:54.958Z,22.50
2018-11-22T08:48:47.871Z,22.50
2018-11-22T08:49:47.885Z,22.50
2018-11-22T08:51:41.004Z,16.88
2018-11-22T08:52:40.847Z,16.88
2018-11-22T08:54:33.770Z,16.88
2018-11-22T08:55:33.765Z,16.88
2018-11-22T08:57:34.499Z,16.88
2018-11-22T08:58:26.733Z,11.25
2018-11-22T09:00:19.639Z,11.25
2018-11-22T09:01:19.631Z,11.25
2018-11-22T09:03:12.815Z,11.25
2018-11-22T09:04:12.577Z,11.25
2018-11-22T09:06:05.486Z,11.25
2018-11-22T09:07:05.489Z,11.25
2018-11-22T09:08:58.670Z,11.25
2018-11-22T09:10:02.482Z,11.25
2018-11-22T09:11:51.347Z,11.25
2018-11-22T09:12:51.362Z,11.25
2018-11-22T09:14:59.090Z,11.25
2018-11-22T09:15:44.266Z,11.25
2018-11-22T09:17:37.173Z,11.25
2018-11-22T09:18:37.183Z,11.25
2018-11-22T09:20:30.360Z,11.25
2018-11-22T09:21:30.108Z,11.25
2018-11-22T09:23:23.018Z,11.25
2018-11-22T09:24:24.287Z,11.25
2018-11-22T09:26:16.118Z,5.63
2018-11-22T09:27:15.950Z,5.63
2018-11-22T09:29:08.855Z,5.63
2018-11-22T09:30:08.866Z,5.63
2018-11-22T09:32:02.045Z,5.63
2018-11-22T09:33:01.792Z,5.63
2018-11-22T09:34:54.704Z,5.63
2018-11-22T09:35:54.713Z,5.63
2018-11-22T09:37:47.883Z,5.63
2018-11-22T09:38:47.632Z,0.00
2018-11-22T09:40:40.550Z,0.00
2018-11-22T09:41:40.548Z,0.00
2018-11-22T09:43:33.772Z,0.00
2018-11-22T09:44:33.493Z,0.00
2018-11-22T09:46:26.402Z,0.00
2018-11-22T09:47:26.412Z,0.00
2018-11-22T09:49:19.397Z,0.00
2018-11-22T09:50:19.337Z,0.00
2018-11-22T09:52:12.244Z,0.00
2018-11-22T09:53:12.261Z,0.00
2018-11-22T09:55:05.426Z,0.00
2018-11-22T09:56:05.176Z,0.00
2018-11-22T09:57:59.640Z,0.00
2018-11-22T09:58:58.143Z,0.00
2018-11-22T10:00:51.273Z,0.00
2018-11-22T10:01:51.031Z,0.00
2018-11-22T10:03:43.946Z,0.00
2018-11-22T10:04:44.010Z,0.00
2018-11-22T10:06:42.199Z,0.00
2018-11-22T10:07:36.887Z,0.00
2018-11-22T10:09:29.784Z,0.00
2018-11-22T10:10:29.794Z,0.00
2018-11-22T10:12:22.995Z,0.00
2018-11-22T10:13:22.730Z,0.00
2018-11-22T10:15:15.639Z,0.00
2018-11-22T10:16:15.651Z,0.00
2018-11-22T10:18:08.821Z,0.00
2018-11-22T10:19:08.576Z,0.00
2018-11-22T10:21:01.482Z,0.00
2018-11-22T10:22:01.487Z,0.00
2018-11-22T10:23:54.763Z,0.00
2018-11-22T10:24:54.409Z,0.00
2018-11-22T10:26:47.890Z,0.00
2018-11-22T10:27:47.353Z,0.00
2018-11-22T10:29:40.337Z,0.00
2018-11-22T10:30:40.277Z,0.00
2018-11-22T10:32:33.232Z,0.00
2018-11-22T10:33:33.187Z,0.00
2018-11-22T10:35:26.482Z,0.00
2018-11-22T10:36:26.139Z,0.00
2018-11-22T10:38:19.101Z,0.00
2018-11-22T10:40:11.122Z,0.00
2018-11-22T10:41:11.117Z,0.00
2018-11-22T10:44:04.037Z,0.00
2018-11-22T10:45:56.968Z,0.00
2018-11-22T10:46:56.984Z,0.00
2018-11-22T10:48:55.211Z,0.00
2018-11-22T10:49:51.457Z,0.00
2018-11-22T10:51:42.813Z,0.00
2018-11-22T10:52:42.820Z,0.00
2018-11-22T10:54:35.893Z,0.00
2018-11-22T10:55:35.737Z,0.00
2018-11-22T10:57:28.657Z,0.00
2018-11-22T10:58:28.664Z,0.00
2018-11-22T11:00:21.655Z,0.00
2018-11-22T11:01:21.644Z,0.00
2018-11-22T11:03:14.498Z,0.00
2018-11-22T11:04:14.525Z,0.00
2018-11-22T11:06:07.593Z,0.00
2018-11-22T11:07:07.460Z,0.00
2018-11-22T11:09:00.349Z,0.00
2018-11-22T11:10:00.359Z,0.00
2018-11-22T11:11:53.344Z,0.00
2018-11-22T11:12:53.278Z,0.00
2018-11-22T11:14:46.192Z,0.00
2018-11-22T11:15:46.205Z,0.00
2018-11-22T11:17:39.214Z,0.00
2018-11-22T11:18:39.121Z,0.00
2018-11-22T11:20:32.055Z,0.00
2018-11-22T11:21:32.070Z,0.00
2018-11-22T11:23:25.062Z,0.00
2018-11-22T11:24:25.704Z,0.00
2018-11-22T11:26:17.895Z,0.00
2018-11-22T11:27:17.906Z,0.00
2018-11-22T11:29:12.798Z,0.00
2018-11-22T11:30:10.825Z,0.00
2018-11-22T11:32:03.739Z,0.00
2018-11-22T11:33:03.743Z,0.00
2018-11-22T11:34:56.734Z,0.00
2018-11-22T11:35:56.670Z,0.00
2018-11-22T11:37:49.583Z,0.00
2018-11-22T11:38:49.585Z,0.00
2018-11-22T11:40:42.596Z,0.00
2018-11-22T11:41:42.521Z,0.00
2018-11-22T11:43:35.424Z,0.00
2018-11-22T11:44:35.434Z,0.00
2018-11-22T11:46:28.642Z,0.00
2018-11-22T11:47:28.380Z,0.00
2018-11-22T11:49:21.287Z,0.00
2018-11-22T11:50:21.309Z,0.00
2018-11-22T11:52:14.368Z,0.00
2018-11-22T11:53:14.217Z,0.00
2018-11-22T11:55:07.126Z,0.00
2018-11-22T11:56:07.144Z,0.00
2018-11-22T11:58:00.311Z,0.00
2018-11-22T11:59:00.070Z,0.00
2018-11-22T12:00:52.977Z,0.00
2018-11-22T12:01:52.987Z,0.00
2018-11-22T12:03:46.150Z,0.00
2018-11-22T12:04:45.906Z,0.00
2018-11-22T12:06:39.381Z,0.00
2018-11-22T12:07:38.826Z,0.00
2018-11-22T12:09:32.016Z,0.00
2018-11-22T12:10:31.747Z,0.00
2018-11-22T12:12:24.656Z,0.00
2018-11-22T12:13:24.666Z,0.00
2018-11-22T12:15:17.658Z,0.00
2018-11-22T12:16:17.589Z,0.00
2018-11-22T12:18:11.073Z,0.00
2018-11-22T12:19:10.514Z,0.00
2018-11-22T12:21:03.685Z,0.00
2018-11-22T12:22:03.432Z,0.00
2018-11-22T12:23:56.343Z,0.00
2018-11-22T12:24:56.350Z,0.00
2018-11-22T12:26:49.529Z,0.00
2018-11-22T12:27:49.275Z,0.00
2018-11-22T12:29:42.232Z,0.00
2018-11-22T12:30:42.202Z,0.00
2018-11-22T12:32:36.167Z,0.00
2018-11-22T12:33:35.124Z,0.00
2018-11-22T12:35:28.030Z,0.00
2018-11-22T12:36:28.048Z,0.00
2018-11-22T12:38:22.766Z,0.00
2018-11-22T12:39:20.971Z,0.00
2018-11-22T12:41:13.923Z,0.00
2018-11-22T12:42:13.877Z,0.00
2018-11-22T12:44:07.053Z,0.00
2018-11-22T12:45:06.801Z,0.00
2018-11-22T12:46:59.735Z,0.00
2018-11-22T12:47:59.725Z,0.00
2018-11-22T12:50:00.461Z,0.00
2018-11-22T12:50:52.649Z,0.00
2018-11-22T12:52:45.557Z,0.00
2018-11-22T12:53:45.572Z,0.00
2018-11-22T12:55:38.552Z,0.00
2018-11-22T12:56:38.497Z,0.00
2018-11-22T12:58:31.404Z,0.00
2018-11-22T12:59:31.418Z,0.00
2018-11-22T13:01:29.170Z,0.00
2018-11-22T13:02:24.363Z,0.00
2018-11-22T13:04:17.252Z,0.00
2018-11-22T13:05:17.262Z,0.00
2018-11-22T13:07:17.320Z,0.00
2018-11-22T13:08:10.184Z,0.00
2018-11-22T13:10:03.093Z,0.00
2018-11-22T13:11:03.104Z,0.00
2018-11-22T13:12:56.467Z,0.00
2018-11-22T13:13:56.219Z,0.00
2018-11-22T13:15:49.129Z,0.00
2018-11-22T13:16:49.139Z,0.00
2018-11-22T13:18:42.316Z,0.00
2018-11-22T13:19:42.066Z,0.00
2018-11-22T13:21:34.970Z,0.00
2018-11-22T13:22:34.978Z,0.00
2018-11-22T13:24:28.731Z,0.00
2018-11-22T13:25:27.926Z,0.00
2018-11-22T13:27:20.838Z,0.00
2018-11-22T13:28:20.847Z,0.00
2018-11-22T13:30:13.839Z,0.00
2018-11-22T13:31:13.764Z,0.00
2018-11-22T13:33:06.712Z,0.00
2018-11-22T13:34:06.709Z,0.00
2018-11-22T13:35:59.940Z,0.00
2018-11-22T13:36:59.614Z,0.00
2018-11-22T13:38:52.530Z,0.00
2018-11-22T13:39:52.531Z,0.00
2018-11-22T13:41:45.749Z,0.00
2018-11-22T13:42:45.455Z,0.00
2018-11-22T13:44:38.357Z,0.00
2018-11-22T13:45:38.366Z,0.00
2018-11-22T13:47:31.539Z,0.00
2018-11-22T13:48:31.296Z,0.00
2018-11-22T13:50:24.195Z,0.00
2018-11-22T13:51:24.221Z,0.00
2018-11-22T13:53:20.658Z,0.00
2018-11-22T13:54:17.125Z,0.00
2018-11-22T13:56:10.043Z,0.00
2018-11-22T13:57:10.048Z,0.00
2018-11-22T13:59:04.099Z,0.00
2018-11-22T14:00:02.973Z,0.00
2018-11-22T14:01:55.885Z,0.00
2018-11-22T14:02:55.897Z,0.00
2018-11-22T14:04:48.918Z,0.00
2018-11-22T14:05:48.861Z,0.00
2018-11-22T14:07:41.968Z,0.00
2018-11-22T14:08:41.978Z,0.00
2018-11-22T14:10:35.146Z,0.00
2018-11-22T14:11:34.908Z,0.00
2018-11-22T14:13:27.813Z,0.00
2018-11-22T14:14:27.823Z,0.00
2018-11-22T14:16:20.812Z,0.00
2018-11-22T14:17:20.742Z,0.00
2018-11-22T14:19:13.648Z,0.00
2018-11-22T14:20:13.658Z,0.00
2018-11-22T14:22:06.833Z,0.00
2018-11-22T14:23:06.579Z,0.00
2018-11-22T14:25:00.093Z,0.00
2018-11-22T14:25:59.501Z,0.00
2018-11-22T14:27:53.483Z,0.00
2018-11-22T14:28:52.418Z,0.00
2018-11-22T14:30:45.370Z,0.00
2018-11-22T14:31:45.380Z,0.00
2018-11-22T14:33:38.367Z,0.00
2018-11-22T14:34:38.310Z,0.00
2018-11-22T14:36:31.214Z,0.00
2018-11-22T14:37:31.224Z,0.00
2018-11-22T14:39:24.419Z,0.00
2018-11-22T14:40:24.145Z,0.00
2018-11-22T14:42:17.051Z,0.00
2018-11-22T14:43:17.072Z,0.00
2018-11-22T14:45:10.249Z,0.00
2018-11-22T14:46:09.990Z,0.00
2018-11-22T14:48:03.462Z,0.00
2018-11-22T14:49:02.904Z,0.00
2018-11-22T14:50:55.890Z,0.00
2018-11-22T14:51:55.833Z,0.00
2018-11-22T14:53:48.734Z,0.00
2018-11-22T14:54:48.745Z,0.00
2018-11-22T14:56:41.726Z,0.00
2018-11-22T14:57:41.673Z,0.00
2018-11-22T14:59:34.603Z,0.00
2018-11-22T15:00:34.592Z,0.00
2018-11-22T15:02:27.773Z,0.00
2018-11-22T15:03:27.532Z,0.00
2018-11-22T15:05:20.424Z,0.00
2018-11-22T15:06:20.433Z,0.00
2018-11-22T15:08:13.504Z,0.00
2018-11-22T15:09:13.357Z,0.00
2018-11-22T15:11:06.264Z,0.00
2018-11-22T15:12:06.284Z,0.00
2018-11-22T15:13:59.472Z,0.00
2018-11-22T15:14:59.190Z,0.00
2018-11-22T15:16:52.109Z,0.00
2018-11-22T15:17:52.108Z,0.00
2018-11-22T15:19:47.853Z,0.00
2018-11-22T15:20:45.023Z,0.00
2018-11-22T15:22:37.939Z,0.00
2018-11-22T15:23:37.945Z,0.00
2018-11-22T15:25:39.182Z,0.00
2018-11-22T15:26:30.865Z,0.00
2018-11-22T15:28:23.776Z,0.00
2018-11-22T15:29:23.793Z,0.00
2018-11-22T15:31:16.768Z,0.00
2018-11-22T15:32:16.712Z,0.00
2018-11-22T15:34:09.639Z,0.00
2018-11-22T15:35:09.656Z,0.00
2018-11-22T15:37:02.734Z,0.00
2018-11-22T15:38:02.569Z,0.00
2018-11-22T15:39:55.485Z,0.00
2018-11-22T15:40:55.496Z,0.00
2018-11-22T15:42:48.749Z,0.00
2018-11-22T15:43:48.407Z,0.00
2018-11-22T15:45:41.328Z,0.00
2018-11-22T15:46:41.323Z,0.00
2018-11-22T15:48:34.507Z,0.00
2018-11-22T15:49:34.246Z,0.00
2018-11-22T15:51:27.161Z,0.00
2018-11-22T15:52:27.173Z,0.00
2018-11-22T15:54:20.266Z,0.00
2018-11-22T15:55:21.072Z,0.00
2018-11-22T15:57:13.861Z,0.00
2018-11-22T15:58:13.013Z,0.00
2018-11-22T16:00:06.084Z,0.00
2018-11-22T16:01:05.926Z,0.00
2018-11-22T16:02:58.851Z,0.00
2018-11-22T16:03:58.863Z,0.00
2018-11-22T16:05:52.029Z,0.00
2018-11-22T16:06:51.783Z,0.00
2018-11-22T16:08:44.691Z,0.00
2018-11-22T16:09:44.709Z,0.00
2018-11-22T16:11:37.873Z,0.00
2018-11-22T16:12:37.631Z,0.00
2018-11-22T16:14:30.529Z,0.00
2018-11-22T16:15:30.548Z,0.00
2018-11-22T16:17:23.632Z,0.00
2018-11-22T16:18:23.461Z,0.00
2018-11-22T16:20:16.371Z,0.00
2018-11-22T16:21:16.378Z,0.00
2018-11-22T16:23:23.440Z,0.00
2018-11-22T16:24:09.296Z,0.00
2018-11-22T16:26:02.202Z,0.00
2018-11-22T16:27:02.215Z,0.00
2018-11-22T16:28:55.308Z,0.00
2018-11-22T16:29:55.133Z,0.00
2018-11-22T16:31:48.048Z,0.00
2018-11-22T16:32:48.054Z,0.00
2018-11-22T16:34:41.130Z,0.00
2018-11-22T16:35:40.968Z,0.00
2018-11-22T16:37:33.884Z,0.00
2018-11-22T16:38:33.889Z,0.00
2018-11-22T16:40:27.058Z,0.00
2018-11-22T16:41:26.804Z,0.00
2018-11-22T16:43:19.720Z,0.00
2018-11-22T16:44:19.721Z,0.00
2018-11-22T16:46:12.901Z,0.00
2018-11-22T16:47:12.654Z,0.00
2018-11-22T16:49:05.552Z,0.00
2018-11-22T16:50:05.560Z,0.00
2018-11-22T16:51:58.726Z,0.00
2018-11-22T16:52:58.477Z,0.00
2018-11-22T16:54:51.390Z,0.00
2018-11-22T16:55:51.393Z,0.00
2018-11-22T16:57:45.064Z,0.00
2018-11-22T16:58:44.309Z,0.00
2018-11-22T17:00:37.227Z,0.00
2018-11-22T17:01:37.242Z,0.00
2018-11-22T17:04:06.186Z,0.00
2018-11-22T17:04:30.152Z,0.00
2018-11-22T17:06:23.062Z,0.00
2018-11-22T17:07:23.070Z,0.00
2018-11-22T17:09:16.146Z,0.00
2018-11-22T17:10:15.978Z,0.00
2018-11-22T17:12:08.892Z,0.00
2018-11-22T17:13:08.923Z,0.00
2018-11-22T17:15:02.141Z,0.00
2018-11-22T17:16:01.820Z,0.00
2018-11-22T17:17:54.767Z,0.00
2018-11-22T17:18:54.790Z,0.00
2018-11-22T17:20:47.719Z,0.00
2018-11-22T17:21:47.648Z,0.00
2018-11-22T17:23:40.556Z,0.00
2018-11-22T17:24:40.569Z,0.00
2018-11-22T17:26:33.644Z,0.00
2018-11-22T17:27:33.480Z,0.00
2018-11-22T17:29:26.392Z,0.00
2018-11-22T17:30:26.402Z,0.00
2018-11-22T17:32:19.570Z,0.00
2018-11-22T17:33:19.320Z,0.00
2018-11-22T17:35:12.225Z,0.00
2018-11-22T17:36:12.235Z,0.00
2018-11-22T17:38:05.324Z,0.00
2018-11-22T17:39:05.154Z,0.00
2018-11-22T17:40:58.065Z,0.00
2018-11-22T17:41:58.075Z,0.00
2018-11-22T17:43:51.057Z,0.00
2018-11-22T17:44:51.000Z,0.00
2018-11-22T17:46:43.902Z,0.00
2018-11-22T17:47:43.907Z,0.00
2018-11-22T17:49:36.987Z,0.00
2018-11-22T17:50:36.836Z,0.00
2018-11-22T17:52:29.739Z,0.00
2018-11-22T17:53:29.751Z,0.00
2018-11-22T17:55:22.914Z,0.00
2018-11-22T17:56:22.714Z,0.00
2018-11-22T17:58:15.576Z,0.00
2018-11-22T17:59:15.581Z,0.00
2018-11-22T18:01:14.555Z,0.00
2018-11-22T18:02:08.500Z,0.00
2018-11-22T18:04:01.448Z,0.00
2018-11-22T18:05:01.459Z,0.00
2018-11-22T18:06:54.441Z,0.00
2018-11-22T18:07:54.377Z,0.00
2018-11-22T18:09:47.283Z,0.00
2018-11-22T18:10:47.294Z,0.00
2018-11-22T18:12:40.277Z,0.00
2018-11-22T18:13:40.208Z,0.00
2018-11-22T18:15:33.670Z,0.00
2018-11-22T18:16:33.128Z,0.00
2018-11-22T18:18:26.291Z,0.00
2018-11-22T18:19:26.042Z,0.00
2018-11-22T18:21:18.947Z,0.00
2018-11-22T18:22:18.960Z,0.00
2018-11-22T18:24:12.038Z,0.00
2018-11-22T18:25:11.891Z,0.00
2018-11-22T18:27:04.786Z,0.00
2018-11-22T18:28:04.808Z,0.00
2018-11-22T18:29:57.843Z,0.00
2018-11-22T18:30:57.712Z,0.00
2018-11-22T18:32:50.613Z,0.00
2018-11-22T18:33:50.631Z,0.00
2018-11-22T18:35:43.699Z,0.00
2018-11-22T18:36:43.542Z,0.00
2018-11-22T18:38:36.487Z,0.00
2018-11-22T18:39:36.470Z,0.00
2018-11-22T18:41:34.571Z,0.00
2018-11-22T18:42:29.371Z,0.00
2018-11-22T18:44:22.282Z,0.00
2018-11-22T18:45:22.283Z,0.00
2018-11-22T18:47:15.363Z,0.00
2018-11-22T18:48:15.205Z,0.00
2018-11-22T18:50:15.335Z,0.00
2018-11-22T18:51:08.119Z,0.00
2018-11-22T18:53:02.083Z,0.00
2018-11-22T18:54:01.033Z,0.00
2018-11-22T18:55:53.941Z,0.00
2018-11-22T18:56:53.947Z,0.00
2018-11-22T18:58:46.934Z,0.00
2018-11-22T18:59:46.863Z,0.00
2018-11-22T19:01:44.931Z,0.00
2018-11-22T19:02:39.784Z,0.00
2018-11-22T19:04:32.835Z,0.00
2018-11-22T19:05:32.704Z,0.00
2018-11-22T19:07:25.607Z,0.00
2018-11-22T19:08:25.648Z,0.00
2018-11-22T19:10:18.789Z,0.00
2018-11-22T19:11:18.528Z,0.00
2018-11-22T19:13:11.452Z,0.00
2018-11-22T19:14:11.455Z,0.00
2018-11-22T19:16:04.530Z,0.00
2018-11-22T19:17:04.377Z,0.00